sensor_id;sensor_type;location;lat;lon;timestamp;pressure;altitude;pressure_sealevel;temperature;humidity
70304;BME280;57712;48.752;11.348;2022-12-29T00:00:16;97319.72;;;1.97;100.00
70304;BME280;57712;48.752;11.348;2022-12-29T00:02:43;97315.56;;;2.03;100.00
70304;BME280;57712;48.752;11.348;2022-12-29T00:05:09;97315.09;;;1.97;100.00
70304;BME280;57712;48.752;11.348;2022-12-29T00:07:36;97310.66;;;2.09;100.00
70304;BME280;57712;48.752;11.348;2022-12-29T00:10:03;97299.00;;;2.05;100.00
70304;BME280;57712;48.752;11.348;2022-12-29T00:12:29;97303.72;;;2.11;100.00
70304;BME280;57712;48.752;11.348;2022-12-29T00:15:16;97304.13;;;2.13;100.00
70304;BME280;57712;48.752;11.348;2022-12-29T00:18:01;97299.97;;;2.19;100.00
70304;BME280;57712;48.752;11.348;2022-12-29T00:20:28;97298.06;;;2.23;100.00
70304;BME280;57712;48.752;11.348;2022-12-29T00:23:13;97302.31;;;2.24;100.00
70304;BME280;57712;48.752;11.348;2022-12-29T00:25:58;97307.81;;;2.31;100.00
70304;BME280;57712;48.752;11.348;2022-12-29T00:28:43;97309.31;;;2.29;100.00
70304;BME280;57712;48.752;11.348;2022-12-29T00:31:28;97302.22;;;2.17;100.00
70304;BME280;57712;48.752;11.348;2022-12-29T00:34:14;97302.28;;;2.21;100.00
70304;BME280;57712;48.752;11.348;2022-12-29T00:36:59;97295.28;;;2.16;100.00
70304;BME280;57712;48.752;11.348;2022-12-29T00:39:26;97300.03;;;2.26;100.00
70304;BME280;57712;48.752;11.348;2022-12-29T00:42:32;97292.75;;;2.30;100.00
70304;BME280;57712;48.752;11.348;2022-12-29T00:45:17;97291.84;;;2.19;100.00
70304;BME280;57712;48.752;11.348;2022-12-29T00:47:43;97302.88;;;2.07;100.00
70304;BME280;57712;48.752;11.348;2022-12-29T00:50:10;97304.63;;;2.22;100.00
70304;BME280;57712;48.752;11.348;2022-12-29T00:52:36;97302.97;;;2.14;100.00
70304;BME280;57712;48.752;11.348;2022-12-29T00:55:03;97300.69;;;2.16;100.00
70304;BME280;57712;48.752;11.348;2022-12-29T00:57:30;97297.19;;;2.16;100.00
70304;BME280;57712;48.752;11.348;2022-12-29T00:59:56;97302.19;;;2.14;100.00
70304;BME280;57712;48.752;11.348;2022-12-29T01:02:23;97296.00;;;2.10;100.00
70304;BME280;57712;48.752;11.348;2022-12-29T01:04:49;97303.31;;;2.09;100.00
70304;BME280;57712;48.752;11.348;2022-12-29T01:07:16;97309.13;;;2.11;100.00
70304;BME280;57712;48.752;11.348;2022-12-29T01:09:43;97301.66;;;2.01;100.00
70304;BME280;57712;48.752;11.348;2022-12-29T01:12:28;97302.03;;;1.99;100.00
70304;BME280;57712;48.752;11.348;2022-12-29T01:15:09;97298.97;;;2.01;100.00
70304;BME280;57712;48.752;11.348;2022-12-29T01:17:36;97300.53;;;2.02;100.00
70304;BME280;57712;48.752;11.348;2022-12-29T01:20:03;97298.63;;;2.06;100.00
70304;BME280;57712;48.752;11.348;2022-12-29T01:22:30;97291.31;;;2.07;100.00
70304;BME280;57712;48.752;11.348;2022-12-29T01:24:57;97299.03;;;2.08;100.00
70304;BME280;57712;48.752;11.348;2022-12-29T01:27:23;97296.56;;;1.96;100.00
70304;BME280;57712;48.752;11.348;2022-12-29T01:29:50;97288.56;;;2.03;100.00
70304;BME280;57712;48.752;11.348;2022-12-29T01:32:17;97283.63;;;2.09;100.00
70304;BME280;57712;48.752;11.348;2022-12-29T01:34:43;97285.22;;;2.13;100.00
70304;BME280;57712;48.752;11.348;2022-12-29T01:37:10;97286.75;;;2.14;100.00
70304;BME280;57712;48.752;11.348;2022-12-29T01:39:37;97289.47;;;2.14;100.00
70304;BME280;57712;48.752;11.348;2022-12-29T01:42:03;97283.56;;;2.05;100.00
70304;BME280;57712;48.752;11.348;2022-12-29T01:44:55;97282.78;;;2.05;100.00
70304;BME280;57712;48.752;11.348;2022-12-29T01:47:33;97273.16;;;2.07;100.00
70304;BME280;57712;48.752;11.348;2022-12-29T01:50:11;97275.94;;;2.11;100.00
70304;BME280;57712;48.752;11.348;2022-12-29T01:52:44;97279.81;;;2.13;100.00
70304;BME280;57712;48.752;11.348;2022-12-29T01:55:14;97274.81;;;2.15;100.00
70304;BME280;57712;48.752;11.348;2022-12-29T01:57:43;97274.41;;;2.13;100.00
70304;BME280;57712;48.752;11.348;2022-12-29T02:00:13;97274.03;;;2.15;100.00
70304;BME280;57712;48.752;11.348;2022-12-29T02:02:46;97264.03;;;2.19;100.00
70304;BME280;57712;48.752;11.348;2022-12-29T02:05:20;97272.13;;;2.15;100.00
70304;BME280;57712;48.752;11.348;2022-12-29T02:07:50;97275.28;;;2.21;100.00
70304;BME280;57712;48.752;11.348;2022-12-29T02:10:20;97286.88;;;2.25;100.00
70304;BME280;57712;48.752;11.348;2022-12-29T02:12:48;97280.75;;;2.28;100.00
70304;BME280;57712;48.752;11.348;2022-12-29T02:15:15;97285.06;;;2.33;100.00
70304;BME280;57712;48.752;11.348;2022-12-29T02:20:37;97266.75;;;2.19;100.00
70304;BME280;57712;48.752;11.348;2022-12-29T02:29:40;97255.38;;;2.40;100.00
70304;BME280;57712;48.752;11.348;2022-12-29T02:35:08;97243.53;;;2.51;100.00
70304;BME280;57712;48.752;11.348;2022-12-29T02:38:03;97254.84;;;2.60;100.00
70304;BME280;57712;48.752;11.348;2022-12-29T02:40:55;97251.31;;;2.60;100.00
70304;BME280;57712;48.752;11.348;2022-12-29T02:46:44;97242.50;;;2.63;100.00
70304;BME280;57712;48.752;11.348;2022-12-29T02:49:17;97242.50;;;2.67;100.00
70304;BME280;57712;48.752;11.348;2022-12-29T02:51:51;97245.66;;;2.72;100.00
70304;BME280;57712;48.752;11.348;2022-12-29T02:54:19;97246.47;;;2.76;100.00
70304;BME280;57712;48.752;11.348;2022-12-29T02:57:13;97240.31;;;2.79;100.00
70304;BME280;57712;48.752;11.348;2022-12-29T02:59:41;97235.72;;;2.83;100.00
70304;BME280;57712;48.752;11.348;2022-12-29T03:05:22;97227.94;;;2.78;100.00
70304;BME280;57712;48.752;11.348;2022-12-29T03:08:06;97219.41;;;2.76;100.00
70304;BME280;57712;48.752;11.348;2022-12-29T03:11:02;97222.13;;;2.76;100.00
70304;BME280;57712;48.752;11.348;2022-12-29T03:13:41;97220.25;;;2.84;100.00
70304;BME280;57712;48.752;11.348;2022-12-29T03:19:13;97210.97;;;2.81;100.00
70304;BME280;57712;48.752;11.348;2022-12-29T03:24:58;97201.34;;;2.87;100.00
70304;BME280;57712;48.752;11.348;2022-12-29T03:27:30;97192.47;;;2.90;100.00
70304;BME280;57712;48.752;11.348;2022-12-29T03:30:01;97194.03;;;2.92;100.00
70304;BME280;57712;48.752;11.348;2022-12-29T03:32:36;97188.63;;;2.92;100.00
70304;BME280;57712;48.752;11.348;2022-12-29T03:35:05;97192.53;;;2.98;100.00
70304;BME280;57712;48.752;11.348;2022-12-29T03:37:45;97191.03;;;3.04;100.00
70304;BME280;57712;48.752;11.348;2022-12-29T03:40:16;97185.97;;;2.99;100.00
70304;BME280;57712;48.752;11.348;2022-12-29T03:42:44;97190.63;;;3.02;100.00
70304;BME280;57712;48.752;11.348;2022-12-29T03:45:10;97193.28;;;2.95;100.00
70304;BME280;57712;48.752;11.348;2022-12-29T03:47:37;97193.31;;;2.98;100.00
70304;BME280;57712;48.752;11.348;2022-12-29T03:50:03;97194.84;;;2.96;100.00
70304;BME280;57712;48.752;11.348;2022-12-29T03:52:30;97194.84;;;2.99;100.00
70304;BME280;57712;48.752;11.348;2022-12-29T03:54:56;97197.56;;;2.99;100.00
70304;BME280;57712;48.752;11.348;2022-12-29T03:57:22;97193.31;;;2.98;100.00
70304;BME280;57712;48.752;11.348;2022-12-29T03:59:49;97196.78;;;2.99;100.00
70304;BME280;57712;48.752;11.348;2022-12-29T04:02:16;97203.03;;;3.03;100.00
70304;BME280;57712;48.752;11.348;2022-12-29T04:04:43;97182.06;;;2.93;100.00
70304;BME280;57712;48.752;11.348;2022-12-29T04:07:10;97188.66;;;2.99;100.00
70304;BME280;57712;48.752;11.348;2022-12-29T04:09:37;97189.50;;;3.03;100.00
70304;BME280;57712;48.752;11.348;2022-12-29T04:12:03;97188.34;;;3.04;100.00
70304;BME280;57712;48.752;11.348;2022-12-29T04:14:30;97185.63;;;3.04;100.00
70304;BME280;57712;48.752;11.348;2022-12-29T04:16:56;97179.78;;;3.02;100.00
70304;BME280;57712;48.752;11.348;2022-12-29T04:19:23;97175.59;;;3.08;100.00
70304;BME280;57712;48.752;11.348;2022-12-29T04:21:49;97178.69;;;3.10;100.00
70304;BME280;57712;48.752;11.348;2022-12-29T04:24:16;97169.47;;;3.14;100.00
70304;BME280;57712;48.752;11.348;2022-12-29T04:26:44;97167.16;;;3.20;100.00
70304;BME280;57712;48.752;11.348;2022-12-29T04:29:10;97171.41;;;3.21;100.00
70304;BME280;57712;48.752;11.348;2022-12-29T04:31:36;97166.84;;;3.32;100.00
70304;BME280;57712;48.752;11.348;2022-12-29T04:34:03;97159.53;;;3.40;100.00
70304;BME280;57712;48.752;11.348;2022-12-29T04:36:29;97153.03;;;3.59;100.00
70304;BME280;57712;48.752;11.348;2022-12-29T04:38:56;97154.28;;;3.79;100.00
70304;BME280;57712;48.752;11.348;2022-12-29T04:41:23;97154.69;;;3.95;100.00
70304;BME280;57712;48.752;11.348;2022-12-29T04:43:49;97158.59;;;4.16;100.00
70304;BME280;57712;48.752;11.348;2022-12-29T04:46:16;97151.69;;;4.29;100.00
70304;BME280;57712;48.752;11.348;2022-12-29T04:48:43;97150.53;;;4.51;100.00
70304;BME280;57712;48.752;11.348;2022-12-29T04:51:10;97151.69;;;4.64;100.00
70304;BME280;57712;48.752;11.348;2022-12-29T04:53:36;97142.75;;;4.75;100.00
70304;BME280;57712;48.752;11.348;2022-12-29T04:56:03;97138.09;;;4.89;100.00
70304;BME280;57712;48.752;11.348;2022-12-29T04:58:29;97137.28;;;5.00;100.00
70304;BME280;57712;48.752;11.348;2022-12-29T05:00:56;97140.34;;;5.27;100.00
70304;BME280;57712;48.752;11.348;2022-12-29T05:03:22;97141.13;;;5.34;100.00
70304;BME280;57712;48.752;11.348;2022-12-29T05:05:49;97142.66;;;5.42;100.00
70304;BME280;57712;48.752;11.348;2022-12-29T05:08:18;97150.75;;;5.49;100.00
70304;BME280;57712;48.752;11.348;2022-12-29T05:10:52;97153.81;;;5.62;100.00
70304;BME280;57712;48.752;11.348;2022-12-29T05:13:19;97154.16;;;5.71;100.00
70304;BME280;57712;48.752;11.348;2022-12-29T05:15:52;97150.22;;;5.83;100.00
70304;BME280;57712;48.752;11.348;2022-12-29T05:18:19;97153.34;;;5.82;100.00
70304;BME280;57712;48.752;11.348;2022-12-29T05:20:46;97154.91;;;5.79;100.00
70304;BME280;57712;48.752;11.348;2022-12-29T05:23:13;97156.44;;;5.87;100.00
70304;BME280;57712;48.752;11.348;2022-12-29T05:25:40;97155.63;;;5.97;100.00
70304;BME280;57712;48.752;11.348;2022-12-29T05:28:06;97153.25;;;6.03;100.00
70304;BME280;57712;48.752;11.348;2022-12-29T05:30:32;97158.28;;;6.08;100.00
70304;BME280;57712;48.752;11.348;2022-12-29T05:32:59;97154.03;;;6.03;100.00
70304;BME280;57712;48.752;11.348;2022-12-29T05:35:25;97159.03;;;6.12;100.00
70304;BME280;57712;48.752;11.348;2022-12-29T05:37:52;97161.00;;;6.08;100.00
70304;BME280;57712;48.752;11.348;2022-12-29T05:40:18;97151.66;;;6.09;100.00
70304;BME280;57712;48.752;11.348;2022-12-29T05:42:45;97146.97;;;6.13;100.00
70304;BME280;57712;48.752;11.348;2022-12-29T05:45:11;97150.09;;;6.12;100.00
70304;BME280;57712;48.752;11.348;2022-12-29T05:47:39;97156.69;;;6.18;100.00
70304;BME280;57712;48.752;11.348;2022-12-29T05:50:06;97153.16;;;6.21;100.00
70304;BME280;57712;48.752;11.348;2022-12-29T05:52:33;97163.22;;;6.27;100.00
70304;BME280;57712;48.752;11.348;2022-12-29T05:54:59;97161.66;;;6.30;100.00
70304;BME280;57712;48.752;11.348;2022-12-29T05:57:26;97165.53;;;6.29;100.00
70304;BME280;57712;48.752;11.348;2022-12-29T05:59:52;97162.38;;;6.34;100.00
70304;BME280;57712;48.752;11.348;2022-12-29T06:02:19;97163.56;;;6.36;100.00
70304;BME280;57712;48.752;11.348;2022-12-29T06:04:45;97173.22;;;6.41;100.00
70304;BME280;57712;48.752;11.348;2022-12-29T06:07:12;97174.00;;;6.42;100.00
70304;BME280;57712;48.752;11.348;2022-12-29T06:09:39;97170.13;;;6.39;100.00
70304;BME280;57712;48.752;11.348;2022-12-29T06:12:05;97159.25;;;6.39;100.00
70304;BME280;57712;48.752;11.348;2022-12-29T06:14:32;97167.81;;;6.38;100.00
70304;BME280;57712;48.752;11.348;2022-12-29T06:16:59;97160.06;;;6.32;100.00
70304;BME280;57712;48.752;11.348;2022-12-29T06:19:26;97160.44;;;6.34;100.00
70304;BME280;57712;48.752;11.348;2022-12-29T06:21:52;97163.97;;;6.31;100.00
70304;BME280;57712;48.752;11.348;2022-12-29T06:24:20;97171.72;;;6.33;100.00
70304;BME280;57712;48.752;11.348;2022-12-29T06:26:46;97173.28;;;6.30;100.00
70304;BME280;57712;48.752;11.348;2022-12-29T06:29:13;97175.59;;;6.35;100.00
70304;BME280;57712;48.752;11.348;2022-12-29T06:31:46;97178.34;;;6.32;100.00
70304;BME280;57712;48.752;11.348;2022-12-29T06:34:12;97184.56;;;6.32;100.00
70304;BME280;57712;48.752;11.348;2022-12-29T06:36:39;97186.50;;;6.32;100.00
70304;BME280;57712;48.752;11.348;2022-12-29T06:39:05;97184.91;;;6.34;100.00
70304;BME280;57712;48.752;11.348;2022-12-29T06:41:32;97168.59;;;6.34;100.00
70304;BME280;57712;48.752;11.348;2022-12-29T06:43:58;97163.97;;;6.31;100.00
70304;BME280;57712;48.752;11.348;2022-12-29T06:46:25;97177.94;;;6.33;100.00
70304;BME280;57712;48.752;11.348;2022-12-29T06:48:52;97182.63;;;6.29;100.00
70304;BME280;57712;48.752;11.348;2022-12-29T06:51:18;97181.03;;;6.35;100.00
70304;BME280;57712;48.752;11.348;2022-12-29T06:53:45;97181.09;;;6.28;100.00
70304;BME280;57712;48.752;11.348;2022-12-29T06:56:11;97182.59;;;6.33;100.00
70304;BME280;57712;48.752;11.348;2022-12-29T06:58:38;97188.06;;;6.29;100.00
70304;BME280;57712;48.752;11.348;2022-12-29T07:01:04;97181.84;;;6.29;100.00
70304;BME280;57712;48.752;11.348;2022-12-29T07:03:31;97193.53;;;6.22;100.00
70304;BME280;57712;48.752;11.348;2022-12-29T07:05:57;97185.75;;;6.24;100.00
70304;BME280;57712;48.752;11.348;2022-12-29T07:08:24;97200.16;;;6.21;100.00
70304;BME280;57712;48.752;11.348;2022-12-29T07:10:51;97188.09;;;6.22;100.00
70304;BME280;57712;48.752;11.348;2022-12-29T07:13:17;97189.69;;;6.20;100.00
70304;BME280;57712;48.752;11.348;2022-12-29T07:15:43;97195.53;;;6.18;100.00
70304;BME280;57712;48.752;11.348;2022-12-29T07:18:10;97197.88;;;6.16;100.00
70304;BME280;57712;48.752;11.348;2022-12-29T07:20:37;97199.81;;;6.16;100.00
70304;BME280;57712;48.752;11.348;2022-12-29T07:23:03;97200.94;;;6.22;100.00
70304;BME280;57712;48.752;11.348;2022-12-29T07:25:30;97203.25;;;6.23;100.00
70304;BME280;57712;48.752;11.348;2022-12-29T07:27:56;97197.81;;;6.23;100.00
70304;BME280;57712;48.752;11.348;2022-12-29T07:30:23;97195.06;;;6.30;100.00
70304;BME280;57712;48.752;11.348;2022-12-29T07:32:49;97196.19;;;6.36;100.00
70304;BME280;57712;48.752;11.348;2022-12-29T07:35:16;97188.78;;;6.41;100.00
70304;BME280;57712;48.752;11.348;2022-12-29T07:37:42;97188.78;;;6.41;100.00
70304;BME280;57712;48.752;11.348;2022-12-29T07:40:09;97193.41;;;6.44;100.00
70304;BME280;57712;48.752;11.348;2022-12-29T07:42:36;97195.75;;;6.42;100.00
70304;BME280;57712;48.752;11.348;2022-12-29T07:45:03;97202.69;;;6.53;100.00
70304;BME280;57712;48.752;11.348;2022-12-29T07:47:30;97198.00;;;6.54;100.00
70304;BME280;57712;48.752;11.348;2022-12-29T07:49:56;97210.47;;;6.51;100.00
70304;BME280;57712;48.752;11.348;2022-12-29T07:52:23;97196.91;;;6.44;100.00
70304;BME280;57712;48.752;11.348;2022-12-29T07:54:49;97206.56;;;6.52;100.00
70304;BME280;57712;48.752;11.348;2022-12-29T07:57:16;97210.91;;;6.43;100.00
70304;BME280;57712;48.752;11.348;2022-12-29T07:59:42;97212.09;;;6.42;100.00
70304;BME280;57712;48.752;11.348;2022-12-29T08:02:10;97207.81;;;6.41;100.00
70304;BME280;57712;48.752;11.348;2022-12-29T08:04:38;97205.06;;;6.44;100.00
70304;BME280;57712;48.752;11.348;2022-12-29T08:07:04;97204.34;;;6.36;100.00
70304;BME280;57712;48.752;11.348;2022-12-29T08:09:31;97219.50;;;6.38;100.00
70304;BME280;57712;48.752;11.348;2022-12-29T08:11:57;97222.59;;;6.40;100.00
70304;BME280;57712;48.752;11.348;2022-12-29T08:14:24;97219.78;;;6.54;100.00
70304;BME280;57712;48.752;11.348;2022-12-29T08:16:50;97220.47;;;6.65;100.00
70304;BME280;57712;48.752;11.348;2022-12-29T08:19:17;97225.06;;;6.75;100.00
70304;BME280;57712;48.752;11.348;2022-12-29T08:21:43;97227.31;;;6.87;100.00
70304;BME280;57712;48.752;11.348;2022-12-29T08:24:10;97228.72;;;7.06;100.00
70304;BME280;57712;48.752;11.348;2022-12-29T08:26:36;97226.72;;;7.14;100.00
70304;BME280;57712;48.752;11.348;2022-12-29T08:29:03;97223.19;;;7.17;100.00
70304;BME280;57712;48.752;11.348;2022-12-29T08:31:29;97228.22;;;7.22;100.00
70304;BME280;57712;48.752;11.348;2022-12-29T08:33:56;97238.47;;;7.04;100.00
70304;BME280;57712;48.752;11.348;2022-12-29T08:36:23;97230.25;;;7.11;100.00
70304;BME280;57712;48.752;11.348;2022-12-29T08:38:49;97237.88;;;7.30;100.00
70304;BME280;57712;48.752;11.348;2022-12-29T08:41:16;97235.06;;;7.41;100.00
70304;BME280;57712;48.752;11.348;2022-12-29T08:43:46;97237.72;;;7.44;100.00
70304;BME280;57712;48.752;11.348;2022-12-29T08:46:13;97235.31;;;7.53;100.00
70304;BME280;57712;48.752;11.348;2022-12-29T08:48:39;97228.22;;;7.60;100.00
70304;BME280;57712;48.752;11.348;2022-12-29T08:51:06;97241.00;;;7.66;100.00
70304;BME280;57712;48.752;11.348;2022-12-29T08:53:33;97230.88;;;7.67;100.00
70304;BME280;57712;48.752;11.348;2022-12-29T08:56:00;97236.63;;;7.76;100.00
70304;BME280;57712;48.752;11.348;2022-12-29T08:58:31;97239.00;;;7.74;100.00
70304;BME280;57712;48.752;11.348;2022-12-29T09:00:58;97242.41;;;7.81;100.00
70304;BME280;57712;48.752;11.348;2022-12-29T09:03:25;97232.59;;;7.88;100.00
70304;BME280;57712;48.752;11.348;2022-12-29T09:06:13;97228.28;;;7.90;100.00
70304;BME280;57712;48.752;11.348;2022-12-29T09:08:40;97234.84;;;7.96;100.00
70304;BME280;57712;48.752;11.348;2022-12-29T09:13:40;97223.59;;;8.21;100.00
70304;BME280;57712;48.752;11.348;2022-12-29T09:16:07;97218.00;;;8.32;100.00
70304;BME280;57712;48.752;11.348;2022-12-29T09:18:34;97232.84;;;8.34;100.00
70304;BME280;57712;48.752;11.348;2022-12-29T09:21:02;97216.47;;;8.34;100.00
70304;BME280;57712;48.752;11.348;2022-12-29T09:23:30;97234.59;;;8.48;100.00
70304;BME280;57712;48.752;11.348;2022-12-29T09:25:56;97245.66;;;8.64;100.00
70304;BME280;57712;48.752;11.348;2022-12-29T09:28:23;97243.09;;;8.81;100.00
70304;BME280;57712;48.752;11.348;2022-12-29T09:30:51;97242.75;;;9.02;100.00
70304;BME280;57712;48.752;11.348;2022-12-29T09:33:18;97242.16;;;9.14;100.00
70304;BME280;57712;48.752;11.348;2022-12-29T09:35:50;97247.19;;;9.19;100.00
70304;BME280;57712;48.752;11.348;2022-12-29T09:38:17;97245.50;;;9.25;100.00
70304;BME280;57712;48.752;11.348;2022-12-29T09:40:46;97245.00;;;9.54;100.00
70304;BME280;57712;48.752;11.348;2022-12-29T09:48:42;97229.94;;;9.66;100.00
70304;BME280;57712;48.752;11.348;2022-12-29T09:51:15;97228.41;;;9.65;100.00
70304;BME280;57712;48.752;11.348;2022-12-29T09:53:45;97218.97;;;9.69;100.00
70304;BME280;57712;48.752;11.348;2022-12-29T09:56:16;97206.34;;;9.75;100.00
70304;BME280;57712;48.752;11.348;2022-12-29T09:59:04;97208.72;;;9.73;100.00
70304;BME280;57712;48.752;11.348;2022-12-29T10:01:37;97216.06;;;9.76;100.00
70304;BME280;57712;48.752;11.348;2022-12-29T10:04:08;97222.63;;;9.82;100.00
70304;BME280;57712;48.752;11.348;2022-12-29T10:06:51;97210.47;;;10.03;100.00
70304;BME280;57712;48.752;11.348;2022-12-29T10:12:29;97211.09;;;10.11;100.00
70304;BME280;57712;48.752;11.348;2022-12-29T10:23:53;97203.50;;;10.38;100.00
70304;BME280;57712;48.752;11.348;2022-12-29T10:26:23;97192.53;;;10.22;100.00
70304;BME280;57712;48.752;11.348;2022-12-29T10:28:56;97193.13;;;10.30;100.00
70304;BME280;57712;48.752;11.348;2022-12-29T10:31:28;97188.41;;;10.66;100.00
70304;BME280;57712;48.752;11.348;2022-12-29T10:34:03;97184.19;;;10.62;100.00
70304;BME280;57712;48.752;11.348;2022-12-29T10:36:39;97179.94;;;10.77;100.00
70304;BME280;57712;48.752;11.348;2022-12-29T10:39:20;97170.41;;;10.82;100.00
70304;BME280;57712;48.752;11.348;2022-12-29T10:41:53;97172.31;;;10.85;100.00
70304;BME280;57712;48.752;11.348;2022-12-29T10:44:22;97171.88;;;10.86;100.00
70304;BME280;57712;48.752;11.348;2022-12-29T10:46:59;97169.66;;;10.81;100.00
70304;BME280;57712;48.752;11.348;2022-12-29T10:49:28;97169.56;;;11.01;100.00
70304;BME280;57712;48.752;11.348;2022-12-29T10:51:58;97164.25;;;10.94;100.00
70304;BME280;57712;48.752;11.348;2022-12-29T10:54:39;97160.22;;;10.82;100.00
70304;BME280;57712;48.752;11.348;2022-12-29T10:57:13;97170.34;;;10.85;100.00
70304;BME280;57712;48.752;11.348;2022-12-29T10:59:41;97164.69;;;11.09;100.00
70304;BME280;57712;48.752;11.348;2022-12-29T11:07:15;97164.44;;;11.48;100.00
70304;BME280;57712;48.752;11.348;2022-12-29T11:09:47;97178.34;;;11.25;100.00
70304;BME280;57712;48.752;11.348;2022-12-29T11:12:26;97181.34;;;11.47;100.00
70304;BME280;57712;48.752;11.348;2022-12-29T11:15:13;97177.34;;;12.06;100.00
70304;BME280;57712;48.752;11.348;2022-12-29T11:17:48;97170.06;;;13.83;100.00
70304;BME280;57712;48.752;11.348;2022-12-29T11:20:36;97168.69;;;13.44;100.00
70304;BME280;57712;48.752;11.348;2022-12-29T11:23:32;97161.25;;;13.66;100.00
70304;BME280;57712;48.752;11.348;2022-12-29T11:28:34;97158.78;;;14.12;100.00
70304;BME280;57712;48.752;11.348;2022-12-29T11:31:02;97154.69;;;13.51;100.00
70304;BME280;57712;48.752;11.348;2022-12-29T11:33:31;97150.69;;;12.83;100.00
70304;BME280;57712;48.752;11.348;2022-12-29T11:36:02;97138.41;;;12.62;100.00
70304;BME280;57712;48.752;11.348;2022-12-29T11:38:36;97142.78;;;12.85;100.00
70304;BME280;57712;48.752;11.348;2022-12-29T11:41:05;97128.44;;;13.03;100.00
70304;BME280;57712;48.752;11.348;2022-12-29T11:43:43;97138.88;;;13.08;100.00
70304;BME280;57712;48.752;11.348;2022-12-29T11:46:19;97141.41;;;13.02;100.00
70304;BME280;57712;48.752;11.348;2022-12-29T11:48:47;97132.88;;;12.75;100.00
70304;BME280;57712;48.752;11.348;2022-12-29T11:51:22;97134.97;;;12.70;100.00
70304;BME280;57712;48.752;11.348;2022-12-29T11:53:53;97147.63;;;12.55;100.00
70304;BME280;57712;48.752;11.348;2022-12-29T11:56:33;97142.00;;;12.59;100.00
70304;BME280;57712;48.752;11.348;2022-12-29T12:01:57;97135.09;;;12.54;100.00
70304;BME280;57712;48.752;11.348;2022-12-29T12:04:28;97133.25;;;12.51;100.00
70304;BME280;57712;48.752;11.348;2022-12-29T12:07:02;97130.38;;;12.55;100.00
70304;BME280;57712;48.752;11.348;2022-12-29T12:09:37;97130.72;;;12.44;100.00
70304;BME280;57712;48.752;11.348;2022-12-29T12:12:08;97136.41;;;12.37;100.00
70304;BME280;57712;48.752;11.348;2022-12-29T12:14:46;97120.81;;;12.34;100.00
70304;BME280;57712;48.752;11.348;2022-12-29T12:17:27;97119.38;;;12.29;100.00
70304;BME280;57712;48.752;11.348;2022-12-29T12:20:21;97114.56;;;12.21;100.00
70304;BME280;57712;48.752;11.348;2022-12-29T12:22:59;97122.38;;;12.22;100.00
70304;BME280;57712;48.752;11.348;2022-12-29T12:25:37;97113.13;;;12.29;100.00
70304;BME280;57712;48.752;11.348;2022-12-29T12:28:11;97120.59;;;12.16;100.00
70304;BME280;57712;48.752;11.348;2022-12-29T12:30:45;97107.31;;;12.14;100.00
70304;BME280;57712;48.752;11.348;2022-12-29T12:33:30;97134.88;;;12.10;100.00
70304;BME280;57712;48.752;11.348;2022-12-29T12:36:28;97119.25;;;12.07;100.00
70304;BME280;57712;48.752;11.348;2022-12-29T12:42:13;97123.53;;;12.08;100.00
70304;BME280;57712;48.752;11.348;2022-12-29T12:45:15;97107.75;;;12.00;100.00
70304;BME280;57712;48.752;11.348;2022-12-29T12:50:55;97112.78;;;12.01;100.00
70304;BME280;57712;48.752;11.348;2022-12-29T12:53:36;97120.16;;;12.04;100.00
70304;BME280;57712;48.752;11.348;2022-12-29T12:56:20;97117.06;;;12.02;100.00
70304;BME280;57712;48.752;11.348;2022-12-29T13:01:51;97122.34;;;12.09;100.00
70304;BME280;57712;48.752;11.348;2022-12-29T13:07:50;97122.56;;;12.02;100.00
70304;BME280;57712;48.752;11.348;2022-12-29T13:16:10;97128.47;;;11.88;100.00
70304;BME280;57712;48.752;11.348;2022-12-29T13:18:52;97111.78;;;11.95;100.00
70304;BME280;57712;48.752;11.348;2022-12-29T13:21:49;97102.91;;;12.04;100.00
70304;BME280;57712;48.752;11.348;2022-12-29T13:25:08;97110.56;;;11.96;100.00
70304;BME280;57712;48.752;11.348;2022-12-29T13:27:51;97113.63;;;11.85;100.00
70304;BME280;57712;48.752;11.348;2022-12-29T13:30:21;97121.66;;;11.80;100.00
70304;BME280;57712;48.752;11.348;2022-12-29T13:37:58;97126.97;;;11.71;100.00
70304;BME280;57712;48.752;11.348;2022-12-29T13:40:28;97132.97;;;11.66;100.00
70304;BME280;57712;48.752;11.348;2022-12-29T13:43:01;97130.25;;;11.66;100.00
70304;BME280;57712;48.752;11.348;2022-12-29T13:45:29;97130.59;;;11.68;100.00
70304;BME280;57712;48.752;11.348;2022-12-29T13:48:17;97126.06;;;11.61;100.00
70304;BME280;57712;48.752;11.348;2022-12-29T13:50:55;97128.56;;;11.55;100.00
70304;BME280;57712;48.752;11.348;2022-12-29T13:56:18;97135.38;;;11.51;100.00
70304;BME280;57712;48.752;11.348;2022-12-29T14:01:43;97126.69;;;11.52;100.00
70304;BME280;57712;48.752;11.348;2022-12-29T14:04:16;97129.63;;;11.45;100.00
70304;BME280;57712;48.752;11.348;2022-12-29T14:07:16;97127.31;;;11.44;100.00
70304;BME280;57712;48.752;11.348;2022-12-29T14:09:55;97131.19;;;11.46;100.00
70304;BME280;57712;48.752;11.348;2022-12-29T14:17:40;97121.84;;;11.44;100.00
70304;BME280;57712;48.752;11.348;2022-12-29T14:20:21;97128.63;;;11.39;100.00
70304;BME280;57712;48.752;11.348;2022-12-29T14:23:01;97135.66;;;11.40;100.00
70304;BME280;57712;48.752;11.348;2022-12-29T14:25:57;97136.53;;;11.37;100.00
70304;BME280;57712;48.752;11.348;2022-12-29T14:30:54;97135.84;;;11.33;100.00
70304;BME280;57712;48.752;11.348;2022-12-29T14:33:23;97144.50;;;11.32;100.00
70304;BME280;57712;48.752;11.348;2022-12-29T14:35:52;97147.34;;;11.28;100.00
70304;BME280;57712;48.752;11.348;2022-12-29T14:38:23;97143.41;;;11.29;100.00
70304;BME280;57712;48.752;11.348;2022-12-29T14:40:51;97150.94;;;11.25;100.00